Time,TemperatureF,DewpointF,PressureIn,WindDirection,WindDirectionDegrees,WindSpeedMPH,WindSpeedGustMPH,Humidity,HourlyPrecipIn,Conditions,Clouds,dailyrainin,SoftwareType,DateUTC
2013-01-12 00:02:00,2.0,-6.0,-100.00,NW,315,24.0,30.0,71,-99.99,,,-99.99,,2013-01-12 07:02:00,
2013-01-12 00:12:00,2.0,-6.0,-100.00,NW,315,24.0,30.0,71,-99.99,,,-99.99,,2013-01-12 07:12:00,
2013-01-12 00:22:00,1.0,-6.0,-100.00,NW,320,21.0,30.0,71,-99.99,,,-99.99,,2013-01-12 07:22:00,
2013-01-12 00:32:00,1.0,-6.0,-100.00,NW,320,21.0,27.0,71,-99.99,,,-99.99,,2013-01-12 07:32:00,
2013-01-12 00:42:00,1.0,-6.0,-100.00,NW,310,19.0,26.0,71,-99.99,,,-99.99,,2013-01-12 07:42:00,
2013-01-12 00:52:00,1.0,-6.0,-100.00,NW,310,19.0,26.0,71,-99.99,,,-99.99,,2013-01-12 07:52:00,
2013-01-12 01:02:00,1.0,-6.0,-100.00,NW,315,24.0,31.0,71,-99.99,,,-99.99,,2013-01-12 08:02:00,
2013-01-12 01:12:00,1.0,-6.0,-100.00,NW,315,24.0,31.0,71,-99.99,,,-99.99,,2013-01-12 08:12:00,
2013-01-12 01:22:00,1.0,-6.0,-100.00,NW,315,24.0,31.0,71,-99.99,,,-99.99,,2013-01-12 08:22:00,
2013-01-12 01:32:00,1.0,-6.0,-100.00,NW,315,26.0,30.0,71,-99.99,,,-99.99,,2013-01-12 08:32:00,
2013-01-12 01:42:00,1.0,-6.0,-100.00,NW,315,24.0,31.0,71,-99.99,,,-99.99,,2013-01-12 08:42:00,
2013-01-12 01:53:00,1.0,-6.0,-100.00,NW,315,24.0,31.0,71,-99.99,,,-99.99,,2013-01-12 08:53:00,
2013-01-12 02:02:00,1.0,-7.0,-100.00,NW,315,26.0,31.0,71,-99.99,,,-99.99,,2013-01-12 09:02:00,
2013-01-12 02:12:00,1.0,-7.0,-100.00,NW,315,26.0,31.0,71,-99.99,,,-99.99,,2013-01-12 09:12:00,
2013-01-12 02:22:00,1.0,-7.0,-100.00,NW,315,22.0,31.0,71,-99.99,,,-99.99,,2013-01-12 09:22:00,
2013-01-12 02:32:00,0.0,-7.0,-100.00,NW,315,22.0,28.0,70,-99.99,,,-99.99,,2013-01-12 09:32:00,
2013-01-12 02:42:00,0.0,-7.0,-100.00,NW,315,23.0,31.0,70,-99.99,,,-99.99,,2013-01-12 09:42:00,
2013-01-12 02:53:00,0.0,-7.0,-100.00,NW,315,23.0,31.0,70,-99.99,,,-99.99,,2013-01-12 09:53:00,
2013-01-12 03:02:00,0.0,-8.0,-100.00,NW,315,23.0,30.0,70,-99.99,,,-99.99,,2013-01-12 10:02:00,
2013-01-12 03:12:00,0.0,-8.0,-100.00,NW,315,23.0,30.0,70,-99.99,,,-99.99,,2013-01-12 10:12:00,
2013-01-12 03:22:00,-1.0,-8.0,-100.00,NW,315,24.0,30.0,70,-99.99,,,-99.99,,2013-01-12 10:22:00,
2013-01-12 03:32:00,0.0,-8.0,-100.00,NW,315,18.0,28.0,69,-99.99,,,-99.99,,2013-01-12 10:32:00,
2013-01-12 03:42:00,0.0,-8.0,-100.00,NW,310,21.0,28.0,69,-99.99,,,-99.99,,2013-01-12 10:42:00,
2013-01-12 03:52:00,0.0,-8.0,-100.00,NW,310,21.0,28.0,69,-99.99,,,-99.99,,2013-01-12 10:52:00,
2013-01-12 04:02:00,0.0,-8.0,-100.00,NW,310,22.0,29.0,69,-99.99,,,-99.99,,2013-01-12 11:02:00,
2013-01-12 04:12:00,0.0,-8.0,-100.00,NW,310,22.0,29.0,69,-99.99,,,-99.99,,2013-01-12 11:12:00,
2013-01-12 04:22:00,0.0,-8.0,-100.00,NW,315,22.0,30.0,69,-99.99,,,-99.99,,2013-01-12 11:22:00,
2013-01-12 04:32:00,0.0,-8.0,-100.00,NW,310,23.0,27.0,69,-99.99,,,-99.99,,2013-01-12 11:32:00,
2013-01-12 04:42:00,0.0,-8.0,-100.00,NW,315,23.0,30.0,69,-99.99,,,-99.99,,2013-01-12 11:42:00,
2013-01-12 04:53:00,0.0,-8.0,-100.00,NW,315,23.0,30.0,69,-99.99,,,-99.99,,2013-01-12 11:53:00,
2013-01-12 05:02:00,0.0,-8.0,-100.00,NW,315,22.0,30.0,69,-99.99,,,-99.99,,2013-01-12 12:02:00,
2013-01-12 05:12:00,0.0,-8.0,-100.00,NW,315,22.0,30.0,69,-99.99,,,-99.99,,2013-01-12 12:12:00,
2013-01-12 05:22:00,0.0,-8.0,-100.00,NW,320,23.0,29.0,68,-99.99,,,-99.99,,2013-01-12 12:22:00,
2013-01-12 05:32:00,0.0,-8.0,-100.00,NW,315,24.0,30.0,68,-99.99,,,-99.99,,2013-01-12 12:32:00,
2013-01-12 05:42:00,-1.0,-8.0,-100.00,NW,315,24.0,30.0,68,-99.99,,,-99.99,,2013-01-12 12:42:00,
2013-01-12 05:53:00,-1.0,-8.0,-100.00,NW,315,24.0,30.0,68,-99.99,,,-99.99,,2013-01-12 12:53:00,
2013-01-12 06:02:00,-1.0,-9.0,-100.00,NW,305,21.0,26.0,68,-99.99,,,-99.99,,2013-01-12 13:02:00,
2013-01-12 06:12:00,-1.0,-9.0,-100.00,NW,305,21.0,26.0,68,-99.99,,,-99.99,,2013-01-12 13:12:00,
2013-01-12 06:22:00,-1.0,-9.0,-100.00,NW,305,18.0,26.0,68,-99.99,,,-99.99,,2013-01-12 13:22:00,
2013-01-12 06:33:00,-1.0,-9.0,-100.00,WNW,300,18.0,24.0,67,-99.99,,,-99.99,,2013-01-12 13:33:00,
2013-01-12 06:42:00,-2.0,-10.0,-100.00,WNW,295,12.0,18.0,67,-99.99,,,-99.99,,2013-01-12 13:42:00,
2013-01-12 06:53:00,-2.0,-10.0,-100.00,WNW,295,12.0,18.0,67,-99.99,,,-99.99,,2013-01-12 13:53:00,
2013-01-12 07:02:00,-2.0,-10.0,-100.00,NW,305,16.0,21.0,67,-99.99,,,-99.99,,2013-01-12 14:02:00,
2013-01-12 07:12:00,-2.0,-10.0,-100.00,NW,305,16.0,21.0,67,-99.99,,,-99.99,,2013-01-12 14:12:00,
2013-01-12 07:22:00,-2.0,-10.0,-100.00,WNW,300,19.0,22.0,67,-99.99,,,-99.99,,2013-01-12 14:22:00,
2013-01-12 07:33:00,-3.0,-11.0,-100.00,WNW,300,21.0,26.0,68,-99.99,,,-99.99,,2013-01-12 14:33:00,
2013-01-12 07:43:00,-3.0,-11.0,-100.00,NW,305,21.0,24.0,68,-99.99,,,-99.99,,2013-01-12 14:43:00,
2013-01-12 07:53:00,-3.0,-11.0,-100.00,NW,305,21.0,24.0,68,-99.99,,,-99.99,,2013-01-12 14:53:00,
2013-01-12 08:03:00,-3.0,-11.0,-100.00,WNW,295,18.0,22.0,68,-99.99,,,-99.99,,2013-01-12 15:03:00,
2013-01-12 08:12:00,-3.0,-11.0,-100.00,WNW,295,18.0,22.0,68,-99.99,,,-99.99,,2013-01-12 15:12:00,
2013-01-12 08:22:00,-4.0,-12.0,-100.00,WNW,300,16.0,21.0,67,-99.99,,,-99.99,,2013-01-12 15:22:00,
2013-01-12 08:33:00,-4.0,-12.0,-100.00,WNW,300,16.0,20.0,67,-99.99,,,-99.99,,2013-01-12 15:33:00,
2013-01-12 08:43:00,-4.0,-12.0,-100.00,WNW,295,16.0,21.0,68,-99.99,,,-99.99,,2013-01-12 15:43:00,
2013-01-12 08:53:00,-4.0,-12.0,-100.00,WNW,295,16.0,21.0,68,-99.99,,,-99.99,,2013-01-12 15:53:00,
2013-01-12 09:03:00,-4.0,-12.0,-100.00,WNW,290,16.0,20.0,68,-99.99,,,-99.99,,2013-01-12 16:03:00,
2013-01-12 09:12:00,-4.0,-12.0,-100.00,WNW,290,16.0,20.0,68,-99.99,,,-99.99,,2013-01-12 16:12:00,
2013-01-12 09:23:00,-4.0,-12.0,-100.00,WNW,295,17.0,20.0,68,-99.99,,,-99.99,,2013-01-12 16:23:00,
2013-01-12 09:33:00,-4.0,-12.0,-100.00,WNW,300,17.0,22.0,68,-99.99,,,-99.99,,2013-01-12 16:33:00,
2013-01-12 09:42:00,-4.0,-12.0,-100.00,NW,305,17.0,20.0,68,-99.99,,,-99.99,,2013-01-12 16:42:00,
2013-01-12 09:53:00,-4.0,-12.0,-100.00,NW,305,17.0,20.0,68,-99.99,,,-99.99,,2013-01-12 16:53:00,
2013-01-12 10:02:00,-3.0,-11.0,-100.00,WNW,300,12.0,18.0,67,-99.99,,,-99.99,,2013-01-12 17:02:00,
2013-01-12 10:12:00,-3.0,-11.0,-100.00,WNW,300,12.0,18.0,67,-99.99,,,-99.99,,2013-01-12 17:12:00,
2013-01-12 10:22:00,-3.0,-11.0,-100.00,WNW,300,12.0,16.0,67,-99.99,,,-99.99,,2013-01-12 17:22:00,
2013-01-12 10:33:00,-2.0,-10.0,-100.00,NW,305,13.0,15.0,66,-99.99,,,-99.99,,2013-01-12 17:33:00,
2013-01-12 10:43:00,-1.0,-10.0,-100.00,WNW,300,16.0,18.0,66,-99.99,,,-99.99,,2013-01-12 17:43:00,
2013-01-12 10:53:00,-1.0,-10.0,-100.00,WNW,300,16.0,18.0,66,-99.99,,,-99.99,,2013-01-12 17:53:00,
2013-01-12 11:03:00,0.0,-9.0,-100.00,WNW,300,14.0,19.0,65,-99.99,,,-99.99,,2013-01-12 18:03:00,
2013-01-12 11:12:00,0.0,-9.0,-100.00,WNW,300,14.0,19.0,65,-99.99,,,-99.99,,2013-01-12 18:12:00,
2013-01-12 11:23:00,0.0,-9.0,-100.00,WNW,300,14.0,20.0,65,-99.99,,,-99.99,,2013-01-12 18:23:00,
2013-01-12 11:33:00,0.0,-9.0,-100.00,NW,305,14.0,20.0,64,-99.99,,,-99.99,,2013-01-12 18:33:00,
2013-01-12 11:42:00,0.0,-9.0,-100.00,WNW,290,12.0,16.0,64,-99.99,,,-99.99,,2013-01-12 18:42:00,
2013-01-12 11:53:00,0.0,-9.0,-100.00,WNW,290,12.0,16.0,64,-99.99,,,-99.99,,2013-01-12 18:53:00,
2013-01-12 12:03:00,0.0,-9.0,-100.00,NW,305,12.0,19.0,63,-99.99,,,-99.99,,2013-01-12 19:03:00,
2013-01-12 12:12:00,0.0,-9.0,-100.00,NW,305,12.0,19.0,63,-99.99,,,-99.99,,2013-01-12 19:12:00,
2013-01-12 12:23:00,0.0,-9.0,-100.00,WNW,300,14.0,17.0,63,-99.99,,,-99.99,,2013-01-12 19:23:00,
2013-01-12 12:33:00,2.0,-9.0,-100.00,WNW,290,15.0,19.0,62,-99.99,,,-99.99,,2013-01-12 19:33:00,
2013-01-12 12:43:00,2.0,-9.0,-100.00,WNW,295,19.0,21.0,61,-99.99,,,-99.99,,2013-01-12 19:43:00,
2013-01-12 12:53:00,2.0,-9.0,-100.00,WNW,295,19.0,21.0,61,-99.99,,,-99.99,,2013-01-12 19:53:00,
2013-01-12 13:03:00,2.0,-9.0,-100.00,WNW,300,17.0,21.0,60,-99.99,,,-99.99,,2013-01-12 20:03:00,
2013-01-12 13:12:00,2.0,-9.0,-100.00,WNW,300,17.0,21.0,60,-99.99,,,-99.99,,2013-01-12 20:12:00,
2013-01-12 13:22:00,2.0,-9.0,-100.00,WNW,300,16.0,21.0,59,-99.99,,,-99.99,,2013-01-12 20:22:00,
2013-01-12 13:32:00,4.0,-8.0,-100.00,WNW,295,14.0,18.0,58,-99.99,,,-99.99,,2013-01-12 20:32:00,
2013-01-12 13:42:00,4.0,-8.0,-100.00,WNW,295,13.0,17.0,57,-99.99,,,-99.99,,2013-01-12 20:42:00,
2013-01-12 13:53:00,4.0,-8.0,-100.00,WNW,295,13.0,17.0,57,-99.99,,,-99.99,,2013-01-12 20:53:00,
2013-01-12 14:03:00,3.0,-9.0,-100.00,WNW,295,19.0,22.0,56,-99.99,,,-99.99,,2013-01-12 21:03:00,
2013-01-12 14:12:00,3.0,-9.0,-100.00,WNW,295,19.0,22.0,56,-99.99,,,-99.99,,2013-01-12 21:12:00,
2013-01-12 14:22:00,4.0,-9.0,-100.00,WNW,300,17.0,21.0,56,-99.99,,,-99.99,,2013-01-12 21:22:00,
2013-01-12 14:33:00,4.0,-9.0,-100.00,WNW,300,19.0,24.0,55,-99.99,,,-99.99,,2013-01-12 21:33:00,
2013-01-12 14:43:00,4.0,-8.0,-100.00,WNW,295,15.0,21.0,55,-99.99,,,-99.99,,2013-01-12 21:43:00,
2013-01-12 14:53:00,4.0,-8.0,-100.00,WNW,295,15.0,21.0,55,-99.99,,,-99.99,,2013-01-12 21:53:00,
2013-01-12 15:03:00,5.0,-8.0,-100.00,WNW,295,18.0,21.0,54,-99.99,,,-99.99,,2013-01-12 22:03:00,
2013-01-12 15:12:00,5.0,-8.0,-100.00,WNW,295,18.0,21.0,54,-99.99,,,-99.99,,2013-01-12 22:12:00,
2013-01-12 15:22:00,5.0,-9.0,-100.00,WNW,300,14.0,20.0,52,-99.99,,,-99.99,,2013-01-12 22:22:00,
2013-01-12 15:33:00,5.0,-9.0,-100.00,WNW,295,15.0,18.0,52,-99.99,,,-99.99,,2013-01-12 22:33:00,
2013-01-12 15:43:00,5.0,-9.0,-100.00,WNW,295,12.0,16.0,52,-99.99,,,-99.99,,2013-01-12 22:43:00,
2013-01-12 15:53:00,5.0,-9.0,-100.00,WNW,295,12.0,16.0,52,-99.99,,,-99.99,,2013-01-12 22:53:00,
2013-01-12 16:03:00,4.0,-9.0,-100.00,WNW,285,9.0,12.0,53,-99.99,,,-99.99,,2013-01-12 23:03:00,
2013-01-12 16:12:00,4.0,-9.0,-100.00,WNW,285,9.0,12.0,53,-99.99,,,-99.99,,2013-01-12 23:12:00,
2013-01-12 16:22:00,4.0,-9.0,-100.00,WNW,290,11.0,12.0,54,-99.99,,,-99.99,,2013-01-12 23:22:00,
2013-01-12 16:33:00,4.0,-9.0,-100.00,WNW,290,14.0,18.0,54,-99.99,,,-99.99,,2013-01-12 23:33:00,
2013-01-12 16:43:00,4.0,-9.0,-100.00,WNW,285,14.0,17.0,54,-99.99,,,-99.99,,2013-01-12 23:43:00,
2013-01-12 16:53:00,4.0,-9.0,-100.00,WNW,285,14.0,17.0,54,-99.99,,,-99.99,,2013-01-12 23:53:00,
2013-01-12 17:03:00,3.0,-9.0,-100.00,West,270,12.0,16.0,55,-99.99,,,-99.99,,2013-01-13 00:03:00,
2013-01-12 17:12:00,3.0,-9.0,-100.00,West,270,12.0,16.0,55,-99.99,,,-99.99,,2013-01-13 00:12:00,
2013-01-12 17:23:00,2.0,-9.0,-100.00,West,270,9.0,12.0,56,-99.99,,,-99.99,,2013-01-13 00:23:00,
2013-01-12 17:33:00,2.0,-9.0,-100.00,West,270,9.0,10.0,58,-99.99,,,-99.99,,2013-01-13 00:33:00,
2013-01-12 17:43:00,2.0,-9.0,-100.00,West,275,7.0,10.0,58,-99.99,,,-99.99,,2013-01-13 00:43:00,
2013-01-12 17:53:00,2.0,-9.0,-100.00,West,275,7.0,10.0,58,-99.99,,,-99.99,,2013-01-13 00:53:00,
2013-01-12 18:02:00,2.0,-9.0,-100.00,West,280,13.0,15.0,59,-99.99,,,-99.99,,2013-01-13 01:02:00,
2013-01-12 18:12:00,2.0,-9.0,-100.00,West,280,13.0,15.0,59,-99.99,,,-99.99,,2013-01-13 01:12:00,
2013-01-12 18:22:00,2.0,-9.0,-100.00,WNW,285,12.0,16.0,58,-99.99,,,-99.99,,2013-01-13 01:22:00,
2013-01-12 18:33:00,2.0,-9.0,-100.00,WNW,290,12.0,15.0,58,-99.99,,,-99.99,,2013-01-13 01:33:00,
2013-01-12 18:43:00,2.0,-9.0,-100.00,WNW,290,15.0,16.0,58,-99.99,,,-99.99,,2013-01-13 01:43:00,
2013-01-12 18:53:00,2.0,-9.0,-100.00,WNW,290,15.0,16.0,58,-99.99,,,-99.99,,2013-01-13 01:53:00,
2013-01-12 19:02:00,2.0,-9.0,-100.00,WNW,290,16.0,18.0,58,-99.99,,,-99.99,,2013-01-13 02:02:00,
2013-01-12 19:12:00,2.0,-9.0,-100.00,WNW,290,16.0,18.0,58,-99.99,,,-99.99,,2013-01-13 02:12:00,
2013-01-12 19:22:00,2.0,-10.0,-100.00,WNW,295,16.0,18.0,58,-99.99,,,-99.99,,2013-01-13 02:22:00,
2013-01-12 19:32:00,1.0,-10.0,-100.00,WNW,295,12.0,15.0,58,-99.99,,,-99.99,,2013-01-13 02:32:00,
2013-01-12 19:43:00,0.0,-10.0,-100.00,WNW,290,12.0,14.0,58,-99.99,,,-99.99,,2013-01-13 02:43:00,
2013-01-12 19:53:00,0.0,-10.0,-100.00,WNW,290,12.0,14.0,58,-99.99,,,-99.99,,2013-01-13 02:53:00,
2013-01-12 20:02:00,0.0,-11.0,-100.00,WNW,285,11.0,13.0,58,-99.99,,,-99.99,,2013-01-13 03:02:00,
2013-01-12 20:12:00,0.0,-11.0,-100.00,WNW,285,11.0,13.0,58,-99.99,,,-99.99,,2013-01-13 03:12:00,
2013-01-12 20:22:00,0.0,-11.0,-100.00,WNW,285,9.0,13.0,58,-99.99,,,-99.99,,2013-01-13 03:22:00,
2013-01-12 20:33:00,1.0,-10.0,-100.00,WNW,285,12.0,14.0,58,-99.99,,,-99.99,,2013-01-13 03:33:00,
2013-01-12 20:43:00,0.0,-11.0,-100.00,WNW,285,12.0,14.0,58,-99.99,,,-99.99,,2013-01-13 03:43:00,
2013-01-12 20:53:00,0.0,-11.0,-100.00,WNW,285,12.0,14.0,58,-99.99,,,-99.99,,2013-01-13 03:53:00,
2013-01-12 21:02:00,0.0,-11.0,-100.00,West,280,15.0,16.0,58,-99.99,,,-99.99,,2013-01-13 04:02:00,
2013-01-12 21:12:00,0.0,-11.0,-100.00,West,280,15.0,16.0,58,-99.99,,,-99.99,,2013-01-13 04:12:00,
2013-01-12 21:22:00,0.0,-11.0,-100.00,West,280,14.0,17.0,58,-99.99,,,-99.99,,2013-01-13 04:22:00,
2013-01-12 21:33:00,0.0,-11.0,-100.00,West,280,11.0,16.0,57,-99.99,,,-99.99,,2013-01-13 04:33:00,
2013-01-12 21:42:00,0.0,-11.0,-100.00,West,275,11.0,14.0,57,-99.99,,,-99.99,,2013-01-13 04:42:00,
2013-01-12 21:53:00,0.0,-11.0,-100.00,West,275,11.0,14.0,57,-99.99,,,-99.99,,2013-01-13 04:53:00,
2013-01-12 22:03:00,2.0,-10.0,-100.00,West,275,14.0,16.0,57,-99.99,,,-99.99,,2013-01-13 05:03:00,
2013-01-12 22:12:00,2.0,-10.0,-100.00,West,275,14.0,16.0,57,-99.99,,,-99.99,,2013-01-13 05:12:00,
2013-01-12 22:22:00,1.0,-10.0,-100.00,West,275,12.0,16.0,56,-99.99,,,-99.99,,2013-01-13 05:22:00,
2013-01-12 22:32:00,2.0,-10.0,-100.00,West,275,12.0,15.0,57,-99.99,,,-99.99,,2013-01-13 05:32:00,
2013-01-12 22:42:00,1.0,-10.0,-100.00,West,275,12.0,16.0,57,-99.99,,,-99.99,,2013-01-13 05:42:00,
2013-01-12 22:53:00,1.0,-10.0,-100.00,West,275,12.0,16.0,57,-99.99,,,-99.99,,2013-01-13 05:53:00,
2013-01-12 23:02:00,1.0,-10.0,-100.00,West,270,13.0,14.0,58,-99.99,,,-99.99,,2013-01-13 06:02:00,
2013-01-12 23:12:00,1.0,-10.0,-100.00,West,270,13.0,14.0,58,-99.99,,,-99.99,,2013-01-13 06:12:00,
2013-01-12 23:22:00,0.0,-11.0,-100.00,West,275,12.0,13.0,59,-99.99,,,-99.99,,2013-01-13 06:22:00,
2013-01-12 23:32:00,-1.0,-12.0,-100.00,West,265,10.0,12.0,59,-99.99,,,-99.99,,2013-01-13 06:32:00,
2013-01-12 23:42:00,-1.0,-12.0,-100.00,West,275,9.0,11.0,59,-99.99,,,-99.99,,2013-01-13 06:42:00,
2013-01-12 23:52:00,-1.0,-12.0,-100.00,West,275,9.0,11.0,59,-99.99,,,-99.99,,2013-01-13 06:52:00,